createdAt,value
2022-12-11T00:02:22.893Z,90805.41
2022-12-11T00:10:49.776Z,90815.21
2022-12-11T00:19:13.348Z,90802.16
2022-12-11T00:27:36.179Z,90808.41
2022-12-11T00:35:59.217Z,90785.50
2022-12-11T00:44:22.103Z,90756.05
2022-12-11T00:52:44.979Z,90765.48
2022-12-11T01:01:11.370Z,90761.30
2022-12-11T01:09:54.448Z,90749.86
2022-12-11T01:18:17.257Z,90737.77
2022-12-11T01:26:40.057Z,90727.36
2022-12-11T01:35:05.309Z,90706.98
2022-12-11T01:43:28.391Z,90683.03
2022-12-11T01:51:58.109Z,90684.48
2022-12-11T02:00:21.657Z,90691.07
2022-12-11T02:08:44.496Z,90661.06
2022-12-11T02:17:12.242Z,90650.81
2022-12-11T02:25:57.000Z,90644.48
2022-12-11T02:34:25.655Z,90636.90
2022-12-11T02:42:51.772Z,90648.45
2022-12-11T02:51:18.911Z,90656.64
2022-12-11T02:59:44.460Z,90651.63
2022-12-11T03:08:07.482Z,90655.24
2022-12-11T03:16:37.806Z,90681.79
2022-12-11T03:25:32.533Z,90654.02
2022-12-11T03:34:01.657Z,90621.13
2022-12-11T03:42:26.907Z,90621.80
2022-12-11T03:50:51.458Z,90616.64
2022-12-11T03:59:14.503Z,90606.18
2022-12-11T04:07:37.717Z,90601.55
2022-12-11T04:16:00.560Z,90610.10
2022-12-11T04:24:23.381Z,90608.71
2022-12-11T04:32:46.290Z,90582.75
2022-12-11T04:41:12.891Z,90585.06
2022-12-11T04:49:35.717Z,90578.83
2022-12-11T04:57:58.555Z,90556.94
2022-12-11T05:06:22.373Z,90563.33
2022-12-11T05:14:46.240Z,90551.38
2022-12-11T05:23:09.101Z,90534.12
2022-12-11T05:31:32.018Z,90510.95
2022-12-11T05:39:54.856Z,90498.22
2022-12-11T05:48:17.790Z,90492.83
2022-12-11T05:56:40.843Z,90478.96
2022-12-11T06:05:04.035Z,90476.55
2022-12-11T06:13:27.288Z,90467.43
2022-12-11T06:21:50.241Z,90444.84
2022-12-11T06:30:13.416Z,90424.50
2022-12-11T06:38:37.151Z,90401.35
2022-12-11T06:47:00.008Z,90370.64
2022-12-11T06:55:23.103Z,90353.23
2022-12-11T07:03:46.392Z,90341.88
2022-12-11T07:12:09.556Z,90332.55
2022-12-11T07:20:32.381Z,90326.91
2022-12-11T07:28:59.499Z,90317.02
2022-12-11T07:37:22.308Z,90292.19
2022-12-11T07:45:45.294Z,90277.33
2022-12-11T07:54:15.024Z,90267.10
2022-12-11T08:02:38.303Z,90250.95
2022-12-11T08:11:02.819Z,90253.88
2022-12-11T08:19:25.833Z,90258.30
2022-12-11T08:27:48.631Z,90255.11
2022-12-11T08:36:14.041Z,90250.84
2022-12-11T08:44:37.021Z,90251.20
2022-12-11T08:52:59.869Z,90239.13
2022-12-11T09:01:26.186Z,90238.15
2022-12-11T09:09:49.092Z,90232.44
2022-12-11T09:18:11.949Z,90222.06
2022-12-11T09:26:34.945Z,90236.82
2022-12-11T09:34:57.805Z,90262.63
2022-12-11T09:43:46.022Z,90275.11
2022-12-11T09:52:20.476Z,90282.63
2022-12-11T10:00:55.056Z,90297.64
2022-12-11T10:09:30.802Z,90291.73
2022-12-11T10:18:02.983Z,90304.48
2022-12-11T10:26:28.956Z,90308.60
2022-12-11T10:35:01.234Z,90297.17
2022-12-11T10:43:53.358Z,90308.10
2022-12-11T10:52:24.425Z,90313.80
2022-12-11T11:00:59.808Z,90318.64
2022-12-11T11:09:36.192Z,90334.84
2022-12-11T11:18:15.446Z,90315.30
2022-12-11T11:27:11.797Z,90293.32
2022-12-11T11:35:26.858Z,90290.18
2022-12-11T11:43:57.975Z,90315.17
2022-12-11T11:52:45.572Z,90341.47
2022-12-11T12:01:18.062Z,90310.20
2022-12-11T12:09:50.168Z,90280.52
2022-12-11T12:18:36.586Z,90256.45
2022-12-11T12:27:36.059Z,90252.34
2022-12-11T12:36:11.237Z,90246.27
2022-12-11T12:44:46.470Z,90220.27
2022-12-11T12:53:18.492Z,90193.90
2022-12-11T13:01:52.447Z,90160.19
2022-12-11T13:10:34.455Z,90112.52
2022-12-11T13:18:57.459Z,90082.58
2022-12-11T13:27:24.937Z,90104.48
2022-12-11T13:35:48.432Z,90089.98
2022-12-11T13:44:20.164Z,90082.98
2022-12-11T13:52:53.853Z,90101.11
2022-12-11T14:01:31.264Z,90074.56
2022-12-11T14:10:00.587Z,90044.06
2022-12-11T14:18:27.559Z,90018.52
2022-12-11T14:26:53.689Z,89987.39
2022-12-11T14:35:41.731Z,89974.21
2022-12-11T14:44:07.869Z,89940.91
2022-12-11T14:52:38.815Z,89918.73
2022-12-11T15:01:05.183Z,89892.84
2022-12-11T15:09:40.781Z,89873.87
2022-12-11T15:18:13.437Z,89867.77
2022-12-11T15:26:39.893Z,89869.81
2022-12-11T15:35:23.236Z,89888.12
2022-12-11T15:43:47.251Z,89894.27
2022-12-11T15:52:10.082Z,89891.88
2022-12-11T16:00:33.657Z,89889.10
2022-12-11T16:08:56.618Z,89895.46
2022-12-11T16:17:19.977Z,89890.80
2022-12-11T16:25:44.309Z,89893.06
2022-12-11T16:34:07.216Z,89902.09
2022-12-11T16:42:30.236Z,89893.00
2022-12-11T16:50:54.603Z,89908.75
2022-12-11T16:59:17.679Z,89900.45
2022-12-11T17:07:40.607Z,89896.70
2022-12-11T17:16:23.577Z,89895.61
2022-12-11T17:24:47.197Z,89876.69
2022-12-11T17:33:11.729Z,89868.34
2022-12-11T17:41:34.614Z,89844.48
2022-12-11T17:49:57.727Z,89832.33
2022-12-11T17:58:24.225Z,89827.77
2022-12-11T18:06:47.121Z,89815.88
2022-12-11T18:15:10.963Z,89821.56
2022-12-11T18:23:34.598Z,89804.04
2022-12-11T18:31:57.546Z,89802.14
2022-12-11T18:40:20.431Z,89797.84
2022-12-11T18:48:45.116Z,89788.05
2022-12-11T18:57:08.131Z,89775.17
2022-12-11T19:05:31.572Z,89761.55
2022-12-11T19:13:57.063Z,89763.89
2022-12-11T19:22:20.853Z,89763.64
2022-12-11T19:30:46.824Z,89745.67
2022-12-11T19:39:13.174Z,89754.53
2022-12-11T19:47:36.572Z,89750.73
2022-12-11T19:55:59.557Z,89737.77
2022-12-11T20:04:22.485Z,89720.50
2022-12-11T20:12:45.498Z,89726.66
2022-12-11T20:21:11.900Z,89723.39
2022-12-11T20:29:35.122Z,89731.77
2022-12-11T20:37:58.352Z,89743.46
2022-12-11T20:46:26.670Z,89727.41
2022-12-11T20:54:49.711Z,89726.90
2022-12-11T21:03:12.824Z,89736.02
2022-12-11T21:11:35.979Z,89725.23
2022-12-11T21:19:58.894Z,89735.66
2022-12-11T21:28:21.943Z,89734.38
2022-12-11T21:36:47.492Z,89736.85
2022-12-11T21:45:52.277Z,89751.05
2022-12-11T21:53:55.335Z,89735.41
2022-12-11T22:02:18.432Z,89724.60
2022-12-11T22:10:41.473Z,89729.05
2022-12-11T22:19:04.571Z,89716.25
2022-12-11T22:27:27.512Z,89729.64
2022-12-11T22:35:57.604Z,89761.76
2022-12-11T22:44:21.849Z,89767.91
2022-12-11T22:52:45.481Z,89748.23
2022-12-11T23:01:18.250Z,89751.91
2022-12-11T23:09:41.773Z,89754.02
2022-12-11T23:18:04.718Z,89737.86
2022-12-11T23:26:28.451Z,89758.15
2022-12-11T23:34:51.326Z,89759.29
2022-12-11T23:43:14.327Z,89746.54
2022-12-11T23:51:37.259Z,89761.91
